Time;durP1;ratioP1;P1;durP2;ratioP2;P2;SDS_P1;SDS_P2;PMS_P1;PMS_P2;Temp;Humidity;BMP_temperature;BMP_pressure;BME280_temperature;BME280_humidity;BME280_pressure;Samples;Min_cycle;Max_cycle;Signal;HPM_P1;HPM_P2
2021/09/13 00:00:31;;;;;;;3.80;3.00;;;;;;;;;;5034564;28;20025;-58
2021/09/13 00:02:57;;;;;;;3.72;2.75;;;;;;;;;;5035745;28;20073;-58
2021/09/13 00:05:23;;;;;;;4.38;2.83;;;;;;;;;;5035141;28;20029;-58
2021/09/13 00:07:49;;;;;;;4.95;3.47;;;;;;;;;;5017398;28;20045;-58
2021/09/13 00:10:15;;;;;;;4.57;3.72;;;;;;;;;;5034797;28;20467;-58
2021/09/13 00:12:41;;;;;;;4.45;3.28;;;;;;;;;;5034509;28;20049;-58
2021/09/13 00:15:08;;;;;;;4.22;3.45;;;;;;;;;;5035019;28;20029;-58
2021/09/13 00:17:34;;;;;;;3.92;3.15;;;;;;;;;;5034675;28;20037;-58
2021/09/13 00:20:00;;;;;;;3.97;2.78;;;;;;;;;;5035172;28;20025;-58
2021/09/13 00:22:26;;;;;;;6.15;2.60;;;;;;;;;;5034796;28;20064;-58
2021/09/13 00:24:52;;;;;;;4.13;2.95;;;;;;;;;;5034701;28;20032;-58
2021/09/13 00:27:18;;;;;;;3.38;2.80;;;;;;;;;;5035235;28;20018;-58
2021/09/13 00:29:47;;;;;;;4.68;3.35;;;;;;;;;;5016702;28;20022;-58
2021/09/13 00:32:13;;;;;;;4.65;3.28;;;;;;;;;;5034295;28;20025;-58
2021/09/13 00:34:39;;;;;;;3.55;3.13;;;;;;;;;;5033560;28;20025;-58
2021/09/13 00:37:05;;;;;;;8.27;3.20;;;;;;;;;;5034329;28;20033;-58
2021/09/13 00:39:32;;;;;;;3.95;3.05;;;;;;;;;;5034318;28;20031;-58
2021/09/13 00:41:58;;;;;;;3.45;2.92;;;;;;;;;;5034455;28;20033;-58
2021/09/13 00:44:26;;;;;;;4.63;3.10;;;;;;;;;;5033903;28;20037;-58
2021/09/13 00:46:53;;;;;;;4.03;3.22;;;;;;;;;;5034176;28;20116;-58
2021/09/13 00:49:20;;;;;;;3.75;2.80;;;;;;;;;;5034099;28;20029;-58
2021/09/13 00:51:45;;;;;;;3.97;2.80;;;;;;;;;;5017188;28;20084;-58
2021/09/13 00:54:12;;;;;;;3.97;2.88;;;;;;;;;;5034338;28;20025;-58
2021/09/13 00:56:42;;;;;;;3.92;2.90;;;;;;;;;;5034210;28;20375;-58
2021/09/13 00:59:08;;;;;;;5.38;2.67;;;;;;;;;;5034470;28;20081;-58
2021/09/13 01:01:34;;;;;;;3.80;2.50;;;;;;;;;;5033407;28;20034;-58
2021/09/13 01:04:00;;;;;;;4.63;3.50;;;;;;;;;;5033986;28;20068;-58
2021/09/13 01:06:26;;;;;;;6.53;4.63;;;;;;;;;;5017149;28;20463;-58
2021/09/13 01:08:56;;;;;;;4.22;3.83;;;;;;;;;;5033987;28;20084;-58
2021/09/13 01:11:22;;;;;;;6.15;4.85;;;;;;;;;;5033778;28;20103;-58
2021/09/13 01:13:48;;;;;;;5.55;4.90;;;;;;;;;;5034561;28;20049;-58
2021/09/13 01:16:15;;;;;;;6.88;4.53;;;;;;;;;;5033388;28;20498;-58
2021/09/13 01:18:44;;;;;;;5.22;4.70;;;;;;;;;;5033485;28;20033;-58
2021/09/13 01:21:10;;;;;;;5.03;4.10;;;;;;;;;;5033679;28;20038;-58
2021/09/13 01:23:37;;;;;;;6.05;3.92;;;;;;;;;;5016226;28;20028;-58
2021/09/13 01:26:06;;;;;;;6.18;3.50;;;;;;;;;;5033914;28;20109;-58
2021/09/13 01:28:34;;;;;;;5.28;3.40;;;;;;;;;;5016104;28;20022;-58
2021/09/13 01:31:01;;;;;;;5.03;3.72;;;;;;;;;;5016672;28;20076;-58
2021/09/13 01:33:27;;;;;;;4.55;3.80;;;;;;;;;;5033990;28;20039;-58
2021/09/13 01:35:59;;;;;;;3.80;3.17;;;;;;;;;;5015850;28;20120;-58
2021/09/13 01:38:28;;;;;;;5.18;3.42;;;;;;;;;;5033497;28;20080;-58
2021/09/13 01:40:54;;;;;;;3.83;3.42;;;;;;;;;;5016472;28;20125;-58
2021/09/13 01:43:20;;;;;;;4.20;3.05;;;;;;;;;;5033574;28;20034;-58
2021/09/13 01:45:46;;;;;;;4.15;3.50;;;;;;;;;;5016057;28;20034;-58
2021/09/13 01:48:12;;;;;;;4.55;3.55;;;;;;;;;;5037424;28;20116;-58
2021/09/13 01:50:41;;;;;;;4.05;2.83;;;;;;;;;;5037437;28;20109;-58
2021/09/13 01:53:07;;;;;;;3.85;3.30;;;;;;;;;;5037657;28;20021;-58
2021/09/13 01:55:33;;;;;;;4.38;2.72;;;;;;;;;;5037380;28;20033;-58
2021/09/13 01:57:59;;;;;;;4.38;3.13;;;;;;;;;;5019515;28;20530;-58
2021/09/13 02:00:25;;;;;;;5.30;3.85;;;;;;;;;;5037273;28;20026;-58
2021/09/13 02:02:51;;;;;;;5.72;3.95;;;;;;;;;;5036921;28;20026;-58
2021/09/13 02:05:17;;;;;;;3.70;3.08;;;;;;;;;;5037207;28;20029;-58
2021/09/13 02:07:43;;;;;;;4.60;3.85;;;;;;;;;;5037844;28;20033;-59
2021/09/13 02:10:09;;;;;;;6.82;3.30;;;;;;;;;;5037565;28;20021;-59
2021/09/13 02:12:35;;;;;;;5.10;3.28;;;;;;;;;;5036508;28;20039;-58
2021/09/13 02:15:01;;;;;;;4.15;3.20;;;;;;;;;;5037579;28;20131;-59
2021/09/13 02:17:27;;;;;;;8.82;3.92;;;;;;;;;;5036609;28;20374;-59
2021/09/13 02:19:57;;;;;;;4.07;3.10;;;;;;;;;;5036550;28;20029;-59
2021/09/13 02:22:22;;;;;;;4.22;3.65;;;;;;;;;;5037061;28;20045;-58
2021/09/13 02:24:48;;;;;;;5.18;3.30;;;;;;;;;;5037550;28;20021;-59
2021/09/13 02:27:14;;;;;;;3.35;2.85;;;;;;;;;;5019214;28;20445;-59
2021/09/13 02:29:40;;;;;;;4.68;3.28;;;;;;;;;;5036448;28;20025;-58
2021/09/13 02:32:07;;;;;;;4.25;3.50;;;;;;;;;;5036878;28;20036;-59
2021/09/13 02:34:33;;;;;;;7.90;3.75;;;;;;;;;;5018756;28;20540;-58
2021/09/13 02:36:59;;;;;;;5.38;3.75;;;;;;;;;;5018550;28;20125;-58
2021/09/13 02:39:25;;;;;;;7.18;4.50;;;;;;;;;;5036522;28;20112;-58
2021/09/13 02:41:51;;;;;;;9.20;4.32;;;;;;;;;;5036379;28;20112;-58
2021/09/13 02:44:18;;;;;;;4.95;4.50;;;;;;;;;;5036446;28;20483;-58
2021/09/13 02:46:44;;;;;;;7.35;4.15;;;;;;;;;;5036309;28;20124;-58
2021/09/13 02:49:10;;;;;;;5.85;4.88;;;;;;;;;;5035998;28;20467;-58
2021/09/13 02:51:36;;;;;;;5.63;4.57;;;;;;;;;;5035982;28;20378;-58
2021/09/13 02:54:06;;;;;;;5.65;4.10;;;;;;;;;;5036822;28;20033;-58
2021/09/13 02:56:35;;;;;;;5.10;4.28;;;;;;;;;;5036242;28;20029;-58
2021/09/13 02:59:01;;;;;;;5.85;4.97;;;;;;;;;;5035496;28;20025;-58
2021/09/13 03:01:27;;;;;;;5.43;4.93;;;;;;;;;;5036058;28;20356;-58
2021/09/13 03:03:55;;;;;;;5.68;4.78;;;;;;;;;;5036623;28;20034;-58
2021/09/13 03:06:27;;;;;;;5.88;4.25;;;;;;;;;;5035769;28;20048;-58
2021/09/13 03:08:53;;;;;;;4.88;4.35;;;;;;;;;;5036456;28;20029;-58
2021/09/13 03:11:19;;;;;;;5.47;4.65;;;;;;;;;;5036156;28;20112;-58
2021/09/13 03:13:45;;;;;;;5.47;4.60;;;;;;;;;;5035968;28;20095;-58
2021/09/13 03:16:11;;;;;;;5.90;5.05;;;;;;;;;;5035817;28;20022;-58
2021/09/13 03:18:40;;;;;;;5.95;4.55;;;;;;;;;;5035763;28;20380;-58
2021/09/13 03:21:06;;;;;;;5.47;4.88;;;;;;;;;;5036172;28;20103;-58
2021/09/13 03:23:32;;;;;;;6.10;4.72;;;;;;;;;;5035697;28;20021;-58
2021/09/13 03:25:58;;;;;;;7.50;5.18;;;;;;;;;;5018741;28;20032;-58
2021/09/13 03:28:24;;;;;;;6.25;5.05;;;;;;;;;;5017952;28;20030;-58
2021/09/13 03:30:51;;;;;;;5.82;5.25;;;;;;;;;;5035580;28;20033;-58
2021/09/13 03:33:17;;;;;;;6.70;5.05;;;;;;;;;;5035693;28;20049;-58
2021/09/13 03:35:43;;;;;;;7.32;5.57;;;;;;;;;;5035818;28;20080;-58
2021/09/13 03:38:09;;;;;;;6.45;4.82;;;;;;;;;;5017630;28;20021;-58
2021/09/13 03:40:35;;;;;;;5.43;4.88;;;;;;;;;;5018194;28;20075;-58
2021/09/13 03:43:01;;;;;;;6.38;4.88;;;;;;;;;;5035928;28;20022;-58
2021/09/13 03:45:27;;;;;;;5.43;4.60;;;;;;;;;;5035273;28;20017;-58
2021/09/13 03:47:53;;;;;;;6.10;5.32;;;;;;;;;;5035829;28;20025;-58
2021/09/13 03:50:19;;;;;;;6.65;5.30;;;;;;;;;;5034898;28;20478;-58
2021/09/13 03:52:45;;;;;;;6.20;5.60;;;;;;;;;;5035555;28;20029;-58
2021/09/13 03:55:14;;;;;;;6.70;4.43;;;;;;;;;;5018233;28;20021;-58
2021/09/13 03:57:40;;;;;;;6.38;5.65;;;;;;;;;;5035352;28;20116;-58
2021/09/13 04:00:06;;;;;;;7.68;5.90;;;;;;;;;;5034969;28;20438;-58
2021/09/13 04:02:32;;;;;;;5.75;4.80;;;;;;;;;;5016500;28;20499;-59
2021/09/13 04:04:58;;;;;;;5.68;5.05;;;;;;;;;;5017230;28;20025;-58
2021/09/13 04:07:38;;;;;;;6.18;5.28;;;;;;;;;;5017764;28;20032;-58
2021/09/13 04:10:28;;;;;;;5.95;5.28;;;;;;;;;;5034553;28;20057;-58
2021/09/13 04:12:54;;;;;;;6.33;5.73;;;;;;;;;;5016824;28;20057;-58
2021/09/13 04:15:20;;;;;;;6.60;5.97;;;;;;;;;;5034965;28;20267;-58
2021/09/13 04:17:46;;;;;;;6.95;6.22;;;;;;;;;;5034984;28;20029;-58
2021/09/13 04:20:13;;;;;;;6.03;5.43;;;;;;;;;;5016921;28;20095;-58
2021/09/13 04:22:44;;;;;;;6.75;5.95;;;;;;;;;;5001266;28;20041;-58
2021/09/13 04:25:10;;;;;;;7.53;5.60;;;;;;;;;;5017100;28;20108;-58
2021/09/13 04:27:36;;;;;;;7.60;5.70;;;;;;;;;;5034707;28;20458;-58
2021/09/13 04:30:03;;;;;;;7.05;5.97;;;;;;;;;;5016658;28;20029;-58
2021/09/13 04:32:29;;;;;;;8.45;5.72;;;;;;;;;;5034444;28;20459;-59
2021/09/13 04:34:55;;;;;;;9.50;5.72;;;;;;;;;;5034341;28;20412;-59
2021/09/13 04:37:21;;;;;;;7.63;6.45;;;;;;;;;;5034267;28;20112;-59
2021/09/13 04:39:47;;;;;;;7.07;5.88;;;;;;;;;;5017425;28;20351;-59
2021/09/13 04:42:13;;;;;;;7.47;6.28;;;;;;;;;;5034185;28;20037;-59
2021/09/13 04:44:39;;;;;;;6.88;5.88;;;;;;;;;;5034092;28;20052;-59
2021/09/13 04:47:08;;;;;;;5.97;5.38;;;;;;;;;;5016552;28;20025;-59
2021/09/13 04:49:34;;;;;;;6.43;5.22;;;;;;;;;;5034638;28;20060;-59
2021/09/13 04:52:00;;;;;;;5.90;5.28;;;;;;;;;;5033815;28;20029;-59
2021/09/13 04:54:26;;;;;;;6.88;5.97;;;;;;;;;;5016073;28;20044;-59
2021/09/13 04:56:52;;;;;;;6.63;6.03;;;;;;;;;;5033784;28;20033;-59
2021/09/13 04:59:18;;;;;;;6.70;5.45;;;;;;;;;;5033860;28;20025;-59
2021/09/13 05:01:44;;;;;;;7.07;6.38;;;;;;;;;;5033742;28;20196;-59
2021/09/13 05:04:11;;;;;;;8.35;5.90;;;;;;;;;;5034677;28;20333;-59
2021/09/13 05:06:40;;;;;;;11.00;6.28;;;;;;;;;;5033749;28;20028;-58
2021/09/13 05:09:06;;;;;;;5.93;5.32;;;;;;;;;;5016131;28;20021;-59
2021/09/13 05:11:32;;;;;;;7.20;5.50;;;;;;;;;;5033644;28;20224;-60
2021/09/13 05:13:58;;;;;;;6.03;5.43;;;;;;;;;;5033902;28;20089;-59
2021/09/13 05:16:24;;;;;;;6.28;5.75;;;;;;;;;;5034175;28;20080;-59
2021/09/13 05:18:50;;;;;;;8.60;7.38;;;;;;;;;;5034451;28;20022;-57
2021/09/13 05:21:16;;;;;;;7.03;6.35;;;;;;;;;;5033057;28;20056;-58
2021/09/13 05:23:42;;;;;;;8.70;7.63;;;;;;;;;;5034211;28;20029;-57
2021/09/13 05:26:08;;;;;;;8.70;7.75;;;;;;;;;;5016396;28;20033;-57
2021/09/13 05:28:34;;;;;;;7.80;7.05;;;;;;;;;;5033612;28;20108;-57
2021/09/13 05:31:00;;;;;;;6.70;5.88;;;;;;;;;;5033836;28;20115;-57
2021/09/13 05:33:26;;;;;;;6.90;5.97;;;;;;;;;;5033967;28;20041;-57
2021/09/13 05:35:53;;;;;;;8.10;6.68;;;;;;;;;;5015897;28;20447;-57
2021/09/13 05:38:19;;;;;;;8.30;7.30;;;;;;;;;;5033478;28;20048;-57
2021/09/13 05:40:48;;;;;;;8.65;7.60;;;;;;;;;;5015928;28;20420;-57
2021/09/13 05:43:14;;;;;;;8.85;7.93;;;;;;;;;;5016521;28;20375;-57
2021/09/13 05:45:40;;;;;;;8.73;7.88;;;;;;;;;;5033413;28;20080;-57
2021/09/13 05:48:07;;;;;;;10.07;7.32;;;;;;;;;;4999541;28;20025;-57
2021/09/13 05:50:33;;;;;;;9.60;7.00;;;;;;;;;;5034285;28;20029;-57
2021/09/13 05:52:59;;;;;;;7.93;7.00;;;;;;;;;;5016051;28;20034;-57
2021/09/13 05:55:25;;;;;;;8.45;7.05;;;;;;;;;;5015624;28;20021;-57
2021/09/13 05:57:51;;;;;;;6.93;6.22;;;;;;;;;;5015923;28;20366;-57
2021/09/13 06:00:17;;;;;;;7.45;5.85;;;;;;;;;;5033369;28;20112;-57
2021/09/13 06:02:43;;;;;;;10.18;5.93;;;;;;;;;;5015209;28;20390;-57
2021/09/13 06:05:10;;;;;;;7.10;5.93;;;;;;;;;;5000271;28;20025;-57
2021/09/13 06:07:36;;;;;;;7.82;6.75;;;;;;;;;;5033350;28;20028;-57
2021/09/13 06:10:02;;;;;;;10.38;6.13;;;;;;;;;;5015302;28;20119;-57
2021/09/13 06:12:28;;;;;;;6.40;5.80;;;;;;;;;;5033350;28;20044;-57
2021/09/13 06:14:56;;;;;;;7.97;5.72;;;;;;;;;;5015751;28;20037;-57
2021/09/13 06:17:22;;;;;;;6.53;5.90;;;;;;;;;;5033192;28;20026;-58
2021/09/13 06:19:51;;;;;;;7.60;6.28;;;;;;;;;;5033124;28;20032;-58
2021/09/13 06:22:17;;;;;;;6.10;5.50;;;;;;;;;;5015690;28;20056;-58
2021/09/13 06:24:46;;;;;;;8.10;6.00;;;;;;;;;;5033878;28;20452;-58
2021/09/13 06:27:14;;;;;;;6.07;5.45;;;;;;;;;;5033072;28;20108;-58
2021/09/13 06:29:41;;;;;;;11.30;6.72;;;;;;;;;;4998990;28;20117;-58
2021/09/13 06:32:07;;;;;;;6.85;6.15;;;;;;;;;;5016091;28;20532;-58
2021/09/13 06:34:33;;;;;;;6.53;5.75;;;;;;;;;;5036185;28;20109;-58
2021/09/13 06:37:02;;;;;;;7.43;6.10;;;;;;;;;;5018762;28;20124;-58
2021/09/13 06:39:30;;;;;;;7.43;6.53;;;;;;;;;;5018753;28;20025;-58
2021/09/13 06:41:56;;;;;;;7.03;6.32;;;;;;;;;;5019402;28;20428;-58
2021/09/13 06:44:23;;;;;;;7.90;6.43;;;;;;;;;;5002505;28;20038;-58
2021/09/13 06:47:02;;;;;;;6.53;5.80;;;;;;;;;;5036338;28;20484;-58
2021/09/13 06:49:29;;;;;;;10.07;6.38;;;;;;;;;;5018703;28;20029;-58
2021/09/13 06:51:55;;;;;;;6.10;5.50;;;;;;;;;;5018906;28;20494;-58
2021/09/13 06:54:23;;;;;;;9.60;5.43;;;;;;;;;;5036265;28;20064;-58
2021/09/13 06:56:49;;;;;;;7.13;6.10;;;;;;;;;;5035986;28;20502;-58
2021/09/13 06:59:15;;;;;;;6.75;4.97;;;;;;;;;;5036208;28;20455;-58
2021/09/13 07:01:42;;;;;;;6.63;5.60;;;;;;;;;;5036374;28;20463;-59
2021/09/13 07:04:10;;;;;;;6.13;5.35;;;;;;;;;;5035310;28;20480;-58
2021/09/13 07:06:36;;;;;;;6.07;5.07;;;;;;;;;;5018161;28;20056;-58
2021/09/13 07:09:03;;;;;;;6.28;4.53;;;;;;;;;;5036004;28;20033;-58
2021/09/13 07:11:29;;;;;;;10.38;5.20;;;;;;;;;;5035715;28;20460;-58
2021/09/13 07:13:57;;;;;;;6.25;5.10;;;;;;;;;;5036474;28;20045;-58
2021/09/13 07:16:23;;;;;;;5.10;4.30;;;;;;;;;;5036167;28;20419;-58
2021/09/13 07:18:49;;;;;;;5.13;4.43;;;;;;;;;;5017864;28;20068;-58
2021/09/13 07:21:15;;;;;;;7.00;4.15;;;;;;;;;;5035184;28;20037;-58
2021/09/13 07:23:41;;;;;;;5.50;3.97;;;;;;;;;;5036344;28;20045;-58
2021/09/13 07:26:07;;;;;;;5.97;3.80;;;;;;;;;;5036101;28;20068;-58
2021/09/13 07:28:33;;;;;;;4.68;3.42;;;;;;;;;;5035464;28;20026;-58
2021/09/13 07:30:59;;;;;;;6.00;3.30;;;;;;;;;;5018355;28;20028;-58
2021/09/13 07:33:26;;;;;;;6.13;3.97;;;;;;;;;;5017872;28;20463;-58
2021/09/13 07:35:55;;;;;;;4.10;3.08;;;;;;;;;;5035904;28;20037;-59
2021/09/13 07:38:21;;;;;;;4.90;3.60;;;;;;;;;;5017854;28;20018;-58
2021/09/13 07:40:47;;;;;;;6.55;3.17;;;;;;;;;;5017627;28;20022;-58
2021/09/13 07:43:13;;;;;;;5.85;3.20;;;;;;;;;;5035917;28;20026;-58
2021/09/13 07:45:39;;;;;;;4.72;3.67;;;;;;;;;;5035402;28;20121;-58
2021/09/13 07:48:05;;;;;;;5.15;3.97;;;;;;;;;;5035243;28;20021;-58
2021/09/13 07:50:32;;;;;;;4.43;3.22;;;;;;;;;;5018094;28;20175;-58
2021/09/13 07:52:58;;;;;;;3.83;2.95;;;;;;;;;;5035385;28;20033;-58
2021/09/13 07:55:24;;;;;;;3.30;2.95;;;;;;;;;;5035280;28;20026;-58
2021/09/13 07:57:50;;;;;;;4.43;3.55;;;;;;;;;;5035258;28;20438;-58
2021/09/13 08:00:16;;;;;;;4.90;3.92;;;;;;;;;;5035194;28;20522;-58
2021/09/13 08:02:42;;;;;;;4.82;3.75;;;;;;;;;;5035110;28;20034;-58
2021/09/13 08:05:11;;;;;;;3.90;3.10;;;;;;;;;;5017298;28;20024;-58
2021/09/13 08:07:38;;;;;;;7.32;2.97;;;;;;;;;;5016942;28;20026;-58
2021/09/13 08:10:04;;;;;;;4.22;3.00;;;;;;;;;;5034862;28;20549;-58
2021/09/13 08:12:33;;;;;;;3.55;2.85;;;;;;;;;;5016971;28;20497;-58
2021/09/13 08:15:01;;;;;;;6.55;3.60;;;;;;;;;;5035245;28;20071;-58
2021/09/13 08:17:27;;;;;;;6.28;3.72;;;;;;;;;;5017077;28;20064;-58
2021/09/13 08:19:53;;;;;;;3.72;3.33;;;;;;;;;;5034917;28;20021;-58
2021/09/13 08:22:19;;;;;;;6.30;3.72;;;;;;;;;;5034608;28;20029;-58
2021/09/13 08:24:45;;;;;;;5.53;4.07;;;;;;;;;;5016887;28;20141;-58
2021/09/13 08:27:11;;;;;;;3.67;3.00;;;;;;;;;;5034628;28;20072;-58
2021/09/13 08:29:37;;;;;;;3.75;3.25;;;;;;;;;;5033814;28;20125;-58
2021/09/13 08:32:03;;;;;;;4.72;3.03;;;;;;;;;;5017524;28;20072;-58
2021/09/13 08:34:29;;;;;;;3.63;2.88;;;;;;;;;;5034424;28;20017;-58
2021/09/13 08:36:56;;;;;;;4.32;3.50;;;;;;;;;;5016763;28;20375;-58
2021/09/13 08:39:24;;;;;;;3.47;2.97;;;;;;;;;;5017251;28;20029;-58
2021/09/13 08:41:53;;;;;;;2.90;2.28;;;;;;;;;;5034604;28;20140;-58
2021/09/13 08:44:19;;;;;;;2.95;2.60;;;;;;;;;;5035142;28;20025;-58
2021/09/13 08:46:50;;;;;;;4.13;2.95;;;;;;;;;;5034343;28;20490;-58
2021/09/13 08:49:39;;;;;;;3.97;2.72;;;;;;;;;;5034532;28;20026;-58
2021/09/13 08:52:05;;;;;;;4.47;3.15;;;;;;;;;;5033959;28;20495;-58
2021/09/13 08:54:34;;;;;;;4.55;3.17;;;;;;;;;;5034538;28;20036;-58
2021/09/13 08:57:07;;;;;;;4.45;2.97;;;;;;;;;;5033621;28;20372;-58
2021/09/13 08:59:34;;;;;;;5.05;3.63;;;;;;;;;;5016668;28;20030;-58
2021/09/13 09:02:00;;;;;;;4.53;3.60;;;;;;;;;;5034794;28;20084;-58
2021/09/13 09:04:26;;;;;;;4.20;3.63;;;;;;;;;;5033765;28;20040;-58
2021/09/13 09:06:53;;;;;;;4.60;3.42;;;;;;;;;;5033829;28;20027;-58
2021/09/13 09:09:20;;;;;;;4.32;3.17;;;;;;;;;;5034206;28;20454;-57
2021/09/13 09:12:01;;;;;;;4.72;3.40;;;;;;;;;;5033530;28;20468;-58
2021/09/13 09:14:35;;;;;;;5.50;3.70;;;;;;;;;;5034786;28;20053;-58
2021/09/13 09:17:05;;;;;;;4.72;3.65;;;;;;;;;;5033831;28;20022;-58
2021/09/13 09:19:31;;;;;;;;;;;;;;;;;;5035081;28;20112;-58
2021/09/13 09:21:58;;;;;;;4.00;3.60;;;;;;;;;;5033695;28;20016;-58
2021/09/13 09:24:25;;;;;;;4.53;4.03;;;;;;;;;;5033674;28;20049;-58
2021/09/13 09:27:04;;;;;;;6.13;3.42;;;;;;;;;;5015988;28;20032;-58
2021/09/13 09:29:33;;;;;;;7.20;3.60;;;;;;;;;;5034328;28;20018;-58
2021/09/13 09:32:00;;;;;;;4.75;3.88;;;;;;;;;;5034279;28;20423;-58
2021/09/13 09:34:28;;;;;;;4.63;4.07;;;;;;;;;;5033647;28;20026;-58
2021/09/13 09:37:00;;;;;;;3.97;3.28;;;;;;;;;;5033647;28;20407;-58
2021/09/13 09:39:30;;;;;;;5.95;4.60;;;;;;;;;;5033672;28;20034;-58
2021/09/13 09:41:57;;;;;;;3.90;3.50;;;;;;;;;;5016281;28;20034;-58
2021/09/13 09:44:23;;;;;;;5.15;3.58;;;;;;;;;;5016620;28;20256;-58
2021/09/13 09:46:50;;;;;;;6.28;3.70;;;;;;;;;;5033580;28;20383;-58
2021/09/13 09:49:20;;;;;;;5.75;3.67;;;;;;;;;;5033993;28;20041;-58
2021/09/13 09:51:50;;;;;;;5.90;4.45;;;;;;;;;;5033632;28;20034;-59
2021/09/13 09:54:17;;;;;;;4.97;3.55;;;;;;;;;;5034014;28;20040;-59
2021/09/13 09:56:45;;;;;;;4.15;3.67;;;;;;;;;;5033914;28;20022;-59
2021/09/13 09:59:12;;;;;;;4.45;3.50;;;;;;;;;;5033485;28;20420;-60
2021/09/13 10:01:41;;;;;;;4.40;3.20;;;;;;;;;;5033183;28;20415;-59
2021/09/13 10:04:13;;;;;;;4.05;3.65;;;;;;;;;;5033072;28;20324;-59
2021/09/13 10:06:42;;;;;;;4.55;3.90;;;;;;;;;;5033792;28;20025;-59
2021/09/13 10:09:14;;;;;;;5.18;4.20;;;;;;;;;;5037155;28;20021;-59
2021/09/13 10:11:41;;;;;;;4.50;3.83;;;;;;;;;;5019849;28;20029;-59
2021/09/13 10:14:08;;;;;;;6.63;3.85;;;;;;;;;;5037058;28;20084;-59
2021/09/13 10:16:36;;;;;;;6.03;4.10;;;;;;;;;;5037372;28;20112;-59
2021/09/13 10:19:02;;;;;;;6.05;4.18;;;;;;;;;;5036933;28;20021;-59
2021/09/13 10:21:28;;;;;;;5.68;4.15;;;;;;;;;;5037032;28;20360;-60
2021/09/13 10:23:55;;;;;;;4.95;3.50;;;;;;;;;;5036576;28;20057;-60
2021/09/13 10:26:21;;;;;;;4.28;3.17;;;;;;;;;;5019733;28;20459;-57
2021/09/13 10:29:02;;;;;;;6.15;4.07;;;;;;;;;;5036695;28;20029;-57
2021/09/13 10:31:45;;;;;;;4.07;3.55;;;;;;;;;;5036379;28;20475;-57
2021/09/13 10:34:32;;;;;;;5.57;3.97;;;;;;;;;;5018991;28;20022;-58
2021/09/13 10:37:18;;;;;;;4.53;2.95;;;;;;;;;;5036837;28;20018;-58
2021/09/13 10:40:02;;;;;;;5.45;4.13;;;;;;;;;;5036552;28;20028;-58
2021/09/13 10:42:41;;;;;;;9.18;3.38;;;;;;;;;;5037061;28;20116;-58
2021/09/13 10:45:10;;;;;;;4.20;3.80;;;;;;;;;;5036500;28;20022;-58
2021/09/13 10:47:39;;;;;;;4.85;3.97;;;;;;;;;;5036382;28;20551;-59
2021/09/13 10:50:14;;;;;;;5.20;4.35;;;;;;;;;;5036401;28;20470;-58
2021/09/13 10:52:40;;;;;;;5.47;3.78;;;;;;;;;;5037221;28;20056;-58
2021/09/13 10:55:09;;;;;;;5.93;3.78;;;;;;;;;;5019190;28;20072;-59
2021/09/13 10:57:53;;;;;;;4.20;3.17;;;;;;;;;;5036375;28;20043;-59
2021/09/13 11:00:41;;;;;;;5.13;3.65;;;;;;;;;;5018783;28;20044;-59
2021/09/13 11:03:29;;;;;;;3.72;3.33;;;;;;;;;;5036807;28;20368;-59
2021/09/13 11:06:13;;;;;;;5.13;3.17;;;;;;;;;;5036471;28;20022;-59
2021/09/13 11:08:43;;;;;;;3.10;2.63;;;;;;;;;;5036845;28;20348;-60
2021/09/13 11:11:10;;;;;;;4.28;3.22;;;;;;;;;;5036299;28;20149;-59
2021/09/13 11:13:36;;;;;;;3.75;2.63;;;;;;;;;;5018018;28;20060;-59
2021/09/13 11:16:02;;;;;;;3.80;2.78;;;;;;;;;;5035993;28;20116;-59
2021/09/13 11:18:33;;;;;;;4.95;3.33;;;;;;;;;;5001586;28;20034;-59
2021/09/13 11:21:14;;;;;;;4.20;3.13;;;;;;;;;;5036413;28;20026;-59
2021/09/13 11:23:40;;;;;;;5.10;3.40;;;;;;;;;;5017864;28;20029;-59
2021/09/13 11:26:06;;;;;;;4.35;2.92;;;;;;;;;;5018190;28;20410;-59
2021/09/13 11:28:32;;;;;;;3.88;3.40;;;;;;;;;;5036147;28;20042;-59
2021/09/13 11:31:01;;;;;;;4.68;3.22;;;;;;;;;;5035696;28;20451;-59
2021/09/13 11:33:27;;;;;;;4.90;3.80;;;;;;;;;;5036212;28;20132;-59
2021/09/13 11:35:56;;;;;;;3.85;3.40;;;;;;;;;;5035696;28;20021;-59
2021/09/13 11:38:22;;;;;;;4.00;3.53;;;;;;;;;;5018613;28;20371;-59
2021/09/13 11:40:48;;;;;;;5.15;3.42;;;;;;;;;;5035044;28;20025;-59
2021/09/13 11:43:14;;;;;;;4.30;3.10;;;;;;;;;;5035484;28;20149;-59
2021/09/13 11:45:40;;;;;;;3.28;2.60;;;;;;;;;;5035518;28;20038;-59
2021/09/13 11:48:07;;;;;;;2.78;2.42;;;;;;;;;;5035914;28;20396;-59
2021/09/13 11:50:36;;;;;;;3.28;2.75;;;;;;;;;;5018147;28;20048;-59
2021/09/13 11:53:12;;;;;;;3.60;3.13;;;;;;;;;;5035549;28;20064;-59
2021/09/13 11:55:38;;;;;;;4.95;3.30;;;;;;;;;;5017729;28;20463;-60
2021/09/13 11:58:07;;;;;;;3.22;2.55;;;;;;;;;;5035147;28;20071;-60
2021/09/13 12:00:37;;;;;;;5.85;2.33;;;;;;;;;;5035140;28;20030;-59
2021/09/13 12:03:04;;;;;;;2.92;2.60;;;;;;;;;;5035321;28;20025;-59
2021/09/13 12:05:34;;;;;;;3.40;2.30;;;;;;;;;;5017780;28;20026;-60
2021/09/13 12:08:01;;;;;;;2.42;2.15;;;;;;;;;;5035052;28;20029;-59
2021/09/13 12:10:28;;;;;;;3.47;2.55;;;;;;;;;;5034922;28;20017;-59
2021/09/13 12:12:55;;;;;;;3.10;2.35;;;;;;;;;;5034761;28;20056;-59
2021/09/13 12:15:23;;;;;;;3.72;2.38;;;;;;;;;;5034850;28;20104;-59
2021/09/13 12:17:50;;;;;;;3.30;2.45;;;;;;;;;;5034621;28;20352;-59
2021/09/13 12:20:18;;;;;;;5.75;1.85;;;;;;;;;;5034597;28;20026;-59
2021/09/13 12:22:49;;;;;;;2.20;1.30;;;;;;;;;;5034832;28;20452;-59
2021/09/13 12:25:17;;;;;;;2.33;1.55;;;;;;;;;;5034631;28;20057;-59
2021/09/13 12:27:48;;;;;;;2.45;1.77;;;;;;;;;;5034539;28;20431;-59
2021/09/13 12:30:14;;;;;;;;;;;;;;;;;;5034735;28;20451;-59
2021/09/13 12:32:40;;;;;;;4.53;2.50;;;;;;;;;;5034600;28;19905;-59
2021/09/13 12:35:08;;;;;;;3.58;2.20;;;;;;;;;;5034389;28;20109;-59
2021/09/13 12:37:38;;;;;;;5.25;2.45;;;;;;;;;;5034560;28;20029;-59
2021/09/13 12:40:10;;;;;;;3.22;2.60;;;;;;;;;;5035028;28;20026;-59
2021/09/13 12:42:37;;;;;;;3.00;2.45;;;;;;;;;;5034456;28;20115;-59
2021/09/13 12:45:04;;;;;;;3.13;2.30;;;;;;;;;;5034227;28;20060;-59
2021/09/13 12:47:30;;;;;;;3.58;2.70;;;;;;;;;;5034164;28;20029;-59
2021/09/13 12:49:56;;;;;;;3.78;2.47;;;;;;;;;;5034470;28;20071;-59
2021/09/13 12:52:24;;;;;;;3.65;2.58;;;;;;;;;;5034204;28;20431;-59
2021/09/13 12:54:50;;;;;;;3.22;2.25;;;;;;;;;;5034556;28;20157;-59
2021/09/13 12:57:33;;;;;;;2.92;2.17;;;;;;;;;;5034062;28;20024;-59
2021/09/13 13:00:10;;;;;;;3.28;2.40;;;;;;;;;;5034565;28;20021;-59
2021/09/13 13:02:36;;;;;;;8.50;2.50;;;;;;;;;;5034145;28;20025;-59
2021/09/13 13:05:02;;;;;;;3.17;2.10;;;;;;;;;;5033850;28;20052;-60
2021/09/13 13:07:28;;;;;;;3.55;2.20;;;;;;;;;;5033868;28;20061;-60
2021/09/13 13:09:54;;;;;;;3.17;2.40;;;;;;;;;;5033912;28;20076;-59
2021/09/13 13:12:21;;;;;;;2.72;2.00;;;;;;;;;;5034188;28;20030;-58
2021/09/13 13:14:47;;;;;;;3.30;2.22;;;;;;;;;;5033921;28;20065;-57
2021/09/13 13:17:13;;;;;;;2.72;2.03;;;;;;;;;;5033871;28;20029;-57
2021/09/13 13:19:39;;;;;;;3.65;2.05;;;;;;;;;;5033758;28;20057;-57
2021/09/13 13:22:05;;;;;;;4.78;2.08;;;;;;;;;;5016315;28;20056;-59
2021/09/13 13:24:31;;;;;;;6.07;2.60;;;;;;;;;;5034038;28;20352;-59
2021/09/13 13:26:59;;;;;;;3.78;2.25;;;;;;;;;;5034056;28;20026;-59
2021/09/13 13:29:25;;;;;;;2.83;1.90;;;;;;;;;;5033747;28;20145;-60
2021/09/13 13:31:52;;;;;;;2.92;2.13;;;;;;;;;;5033961;28;20043;-60
2021/09/13 13:34:18;;;;;;;2.90;2.50;;;;;;;;;;5033582;28;20048;-59
2021/09/13 13:36:44;;;;;;;2.78;2.00;;;;;;;;;;5033567;28;20371;-60
2021/09/13 13:39:10;;;;;;;3.97;2.28;;;;;;;;;;5033892;28;20506;-59
2021/09/13 13:41:36;;;;;;;3.35;2.05;;;;;;;;;;5034134;28;20040;-59
2021/09/13 13:44:02;;;;;;;2.90;2.30;;;;;;;;;;5037820;28;20021;-59
2021/09/13 13:46:29;;;;;;;2.40;1.80;;;;;;;;;;5037614;28;20027;-59
2021/09/13 13:48:56;;;;;;;4.22;2.10;;;;;;;;;;5038048;28;20367;-59
2021/09/13 13:51:22;;;;;;;3.10;2.22;;;;;;;;;;5037800;28;20435;-59
2021/09/13 13:53:47;;;;;;;2.67;2.10;;;;;;;;;;5037843;28;20017;-59
2021/09/13 13:56:13;;;;;;;2.67;1.88;;;;;;;;;;5037078;28;20080;-59
2021/09/13 13:58:39;;;;;;;3.00;2.05;;;;;;;;;;5037474;28;20032;-59
2021/09/13 14:01:05;;;;;;;4.68;2.22;;;;;;;;;;5037338;28;20025;-59
2021/09/13 14:03:31;;;;;;;4.13;2.45;;;;;;;;;;5037347;28;20072;-60
2021/09/13 14:05:57;;;;;;;2.80;1.83;;;;;;;;;;5037585;28;20025;-60
2021/09/13 14:08:23;;;;;;;2.95;1.77;;;;;;;;;;5037472;28;20021;-60
2021/09/13 14:10:49;;;;;;;3.08;2.38;;;;;;;;;;5020393;28;20026;-59
2021/09/13 14:13:15;;;;;;;4.28;3.08;;;;;;;;;;5037240;28;20564;-60
2021/09/13 14:15:41;;;;;;;5.10;2.55;;;;;;;;;;5037154;28;20037;-59
2021/09/13 14:18:07;;;;;;;2.95;1.92;;;;;;;;;;5037086;28;20079;-60
2021/09/13 14:20:36;;;;;;;3.28;2.00;;;;;;;;;;5019248;28;20510;-59
2021/09/13 14:23:02;;;;;;;3.20;2.03;;;;;;;;;;5037420;28;20124;-59
2021/09/13 14:25:28;;;;;;;4.07;2.15;;;;;;;;;;5036977;28;20057;-59
2021/09/13 14:27:54;;;;;;;3.25;1.88;;;;;;;;;;5036824;28;20057;-60
2021/09/13 14:30:20;;;;;;;4.93;1.92;;;;;;;;;;5036848;28;20057;-60
2021/09/13 14:32:46;;;;;;;7.60;2.55;;;;;;;;;;5037263;28;20026;-60
2021/09/13 14:35:12;;;;;;;3.28;2.20;;;;;;;;;;5019284;28;20052;-60
2021/09/13 14:37:38;;;;;;;3.88;2.00;;;;;;;;;;5018945;28;20121;-60
2021/09/13 14:40:04;;;;;;;2.60;2.10;;;;;;;;;;5019226;28;20040;-60
2021/09/13 14:42:30;;;;;;;5.38;2.53;;;;;;;;;;5036670;28;20036;-59
2021/09/13 14:44:56;;;;;;;3.38;2.17;;;;;;;;;;5036639;28;20023;-59